createdAt,value
2018-04-14T00:02:24.271Z,10.70
2018-04-14T00:04:50.605Z,13.13
2018-04-14T00:07:16.981Z,9.97
2018-04-14T00:09:43.326Z,10.23
2018-04-14T00:12:09.657Z,11.47
2018-04-14T00:14:36.035Z,10.93
2018-04-14T00:17:02.402Z,9.53
2018-04-14T00:19:28.750Z,10.20
2018-04-14T00:21:55.088Z,10.37
2018-04-14T00:24:21.464Z,10.07
2018-04-14T00:26:47.797Z,9.97
2018-04-14T00:29:14.204Z,11.77
2018-04-14T00:31:40.552Z,13.50
2018-04-14T00:34:06.927Z,11.90
2018-04-14T00:36:33.269Z,11.63
2018-04-14T00:38:59.608Z,10.53
2018-04-14T00:41:25.953Z,11.27
2018-04-14T00:43:52.274Z,11.53
2018-04-14T00:46:18.778Z,12.07
2018-04-14T00:48:45.122Z,12.80
2018-04-14T00:51:11.482Z,11.33
2018-04-14T00:53:46.992Z,13.13
2018-04-14T00:56:13.413Z,12.23
2018-04-14T00:58:39.800Z,11.57
2018-04-14T01:01:06.145Z,15.40
2018-04-14T01:03:32.514Z,11.77
2018-04-14T01:05:58.950Z,10.80
2018-04-14T01:08:25.272Z,11.33
2018-04-14T01:10:51.631Z,10.50
2018-04-14T01:13:17.961Z,11.23
2018-04-14T01:15:44.371Z,13.30
2018-04-14T01:18:10.718Z,10.70
2018-04-14T01:20:37.063Z,12.40
2018-04-14T01:23:03.398Z,10.57
2018-04-14T01:25:29.750Z,12.17
2018-04-14T01:27:56.093Z,11.07
2018-04-14T01:30:22.433Z,13.10
2018-04-14T01:32:48.853Z,13.50
2018-04-14T01:35:15.199Z,13.27
2018-04-14T01:37:41.526Z,10.43
2018-04-14T01:40:07.860Z,13.13
2018-04-14T01:42:34.254Z,10.80
2018-04-14T01:45:00.586Z,11.40
2018-04-14T01:47:26.929Z,13.23
2018-04-14T01:49:53.286Z,10.90
2018-04-14T01:52:19.643Z,11.80
2018-04-14T01:54:45.987Z,10.03
2018-04-14T01:57:12.334Z,12.30
2018-04-14T01:59:38.671Z,11.33
2018-04-14T02:02:05.098Z,10.03
2018-04-14T02:04:31.442Z,10.47
2018-04-14T02:06:57.852Z,12.97
2018-04-14T02:09:24.167Z,11.80
2018-04-14T02:11:50.601Z,10.93
2018-04-14T02:14:16.930Z,12.17
2018-04-14T02:16:43.341Z,11.47
2018-04-14T02:19:09.693Z,11.97
2018-04-14T02:21:36.128Z,11.97
2018-04-14T02:24:02.458Z,12.20
2018-04-14T02:26:28.777Z,10.63
2018-04-14T02:28:55.128Z,13.50
2018-04-14T02:31:21.465Z,13.30
2018-04-14T02:33:47.802Z,12.13
2018-04-14T02:36:14.156Z,11.27
2018-04-14T02:38:40.483Z,13.33
2018-04-14T02:41:06.861Z,11.07
2018-04-14T02:43:33.194Z,11.17
2018-04-14T02:45:59.535Z,12.20
2018-04-14T02:48:25.879Z,11.90
2018-04-14T02:50:52.211Z,16.83
2018-04-14T02:53:18.542Z,12.90
2018-04-14T02:55:44.894Z,13.60
2018-04-14T02:58:11.275Z,11.30
2018-04-14T03:00:37.629Z,14.90
2018-04-14T03:03:04.063Z,11.97
2018-04-14T03:05:30.425Z,12.77
2018-04-14T03:07:56.766Z,13.87
2018-04-14T03:10:23.122Z,11.30
2018-04-14T03:12:49.449Z,12.30
2018-04-14T03:15:15.797Z,15.30
2018-04-14T03:17:42.118Z,14.33
2018-04-14T03:20:08.442Z,14.40
2018-04-14T03:22:34.786Z,13.60
2018-04-14T03:25:01.105Z,13.73
2018-04-14T03:27:27.457Z,15.80
2018-04-14T03:29:53.837Z,13.20
2018-04-14T03:32:20.186Z,13.30
2018-04-14T03:34:46.530Z,13.60
2018-04-14T03:37:12.886Z,12.73
2018-04-14T03:39:39.210Z,12.33
2018-04-14T03:42:05.558Z,13.67
2018-04-14T03:44:31.921Z,13.70
2018-04-14T03:46:58.250Z,13.03
2018-04-14T03:49:24.582Z,13.23
2018-04-14T03:51:50.942Z,15.87
2018-04-14T03:54:17.403Z,13.80
2018-04-14T03:56:43.790Z,11.97
2018-04-14T03:59:10.189Z,16.00
2018-04-14T04:01:36.580Z,12.77
2018-04-14T04:04:02.974Z,13.63
2018-04-14T04:06:29.318Z,13.83
2018-04-14T04:08:55.654Z,13.93
2018-04-14T04:11:21.983Z,12.87
2018-04-14T04:13:48.313Z,14.67
2018-04-14T04:16:14.654Z,13.87
2018-04-14T04:18:53.276Z,19.23
2018-04-14T04:21:31.817Z,16.77
2018-04-14T04:24:10.542Z,17.33
2018-04-14T04:26:37.692Z,14.73
2018-04-14T04:29:03.976Z,14.77
2018-04-14T04:31:30.192Z,12.13
2018-04-14T04:33:56.403Z,13.13
2018-04-14T04:36:22.604Z,14.43
2018-04-14T04:38:48.898Z,13.17
2018-04-14T04:41:15.105Z,14.40
2018-04-14T04:43:41.421Z,12.87
2018-04-14T04:46:07.758Z,16.43
2018-04-14T04:48:33.961Z,14.37
2018-04-14T04:51:00.237Z,16.10
2018-04-14T04:53:26.445Z,15.27
2018-04-14T04:55:52.646Z,15.00
2018-04-14T04:58:18.921Z,14.47
2018-04-14T05:00:45.137Z,13.80
2018-04-14T05:03:11.352Z,13.67
2018-04-14T05:05:37.683Z,14.80
2018-04-14T05:08:03.907Z,14.73
2018-04-14T05:10:30.113Z,15.30
2018-04-14T05:12:56.358Z,16.33
2018-04-14T05:15:22.598Z,15.87
2018-04-14T05:17:48.802Z,18.10
2018-04-14T05:20:15.065Z,15.27
2018-04-14T05:22:41.282Z,11.87
2018-04-14T05:25:07.485Z,14.93
2018-04-14T05:27:33.764Z,15.87
2018-04-14T05:29:59.980Z,18.03
2018-04-14T05:32:26.184Z,14.13
2018-04-14T05:34:52.394Z,17.33
2018-04-14T05:37:18.621Z,18.63
2018-04-14T05:39:44.859Z,17.03
2018-04-14T05:42:11.099Z,16.90
2018-04-14T05:44:37.317Z,16.03
2018-04-14T05:47:03.546Z,13.27
2018-04-14T05:49:29.778Z,12.07
2018-04-14T05:51:56.042Z,17.50
2018-04-14T05:54:22.258Z,16.03
2018-04-14T05:56:48.490Z,14.87
2018-04-14T05:59:14.866Z,14.83
2018-04-14T06:01:41.098Z,16.73
2018-04-14T06:04:07.306Z,14.47
2018-04-14T06:06:33.538Z,18.07
2018-04-14T06:08:59.790Z,16.30
2018-04-14T06:11:25.981Z,13.27
2018-04-14T06:13:52.214Z,16.10
2018-04-14T06:16:18.444Z,14.67
2018-04-14T06:18:44.665Z,17.30
2018-04-14T06:21:10.901Z,18.93
2018-04-14T06:23:37.143Z,19.87
2018-04-14T06:26:03.399Z,14.47
2018-04-14T06:28:29.801Z,15.23
2018-04-14T06:30:56.006Z,15.03
2018-04-14T06:33:22.230Z,18.03
2018-04-14T06:35:48.448Z,15.20
2018-04-14T06:38:14.698Z,16.87
2018-04-14T06:40:40.905Z,17.67
2018-04-14T06:43:07.131Z,14.90
2018-04-14T06:45:33.336Z,14.83
2018-04-14T06:47:59.554Z,16.03
2018-04-14T06:50:25.749Z,15.83
2018-04-14T06:52:51.970Z,16.33
2018-04-14T06:55:18.206Z,15.87
2018-04-14T06:57:44.426Z,14.40
2018-04-14T07:00:10.655Z,15.97
2018-04-14T07:02:36.897Z,14.67
2018-04-14T07:05:03.167Z,13.73
2018-04-14T07:07:29.394Z,15.00
2018-04-14T07:09:55.669Z,15.67
2018-04-14T07:12:21.880Z,13.30
2018-04-14T07:14:48.110Z,14.60
2018-04-14T07:17:14.330Z,12.03
2018-04-14T07:19:40.539Z,10.97
2018-04-14T07:22:06.766Z,14.43
2018-04-14T07:24:32.990Z,15.37
2018-04-14T07:26:59.298Z,12.10
2018-04-14T07:29:25.514Z,11.37
2018-04-14T07:31:51.734Z,16.67
2018-04-14T07:34:17.998Z,14.97
2018-04-14T07:36:44.245Z,21.93
2018-04-14T07:39:10.474Z,13.20
2018-04-14T07:41:36.699Z,14.17
2018-04-14T07:44:02.947Z,11.83
2018-04-14T07:46:29.158Z,13.60
2018-04-14T07:48:55.381Z,13.47
2018-04-14T07:51:21.598Z,13.07
2018-04-14T07:53:47.821Z,13.67
2018-04-14T07:56:14.045Z,14.53
2018-04-14T07:58:40.324Z,13.37
2018-04-14T08:01:06.527Z,13.33
2018-04-14T08:03:32.811Z,13.37
2018-04-14T08:05:59.039Z,12.93
2018-04-14T08:08:25.254Z,12.93
2018-04-14T08:10:51.469Z,14.07
2018-04-14T08:13:17.714Z,10.60
2018-04-14T08:15:43.924Z,13.53
2018-04-14T08:18:10.283Z,12.77
2018-04-14T08:20:36.704Z,11.13
2018-04-14T08:23:02.923Z,11.23
2018-04-14T08:25:29.146Z,12.03
2018-04-14T08:27:55.369Z,10.70
2018-04-14T08:30:21.587Z,13.10
2018-04-14T08:32:47.813Z,10.10
2018-04-14T08:35:14.033Z,13.87
2018-04-14T08:37:40.246Z,9.63
2018-04-14T08:40:06.519Z,11.87
2018-04-14T08:42:32.830Z,10.60
2018-04-14T08:44:59.115Z,10.37
2018-04-14T08:47:25.344Z,9.53
2018-04-14T08:49:51.682Z,14.27
2018-04-14T08:52:17.950Z,13.77
2018-04-14T08:54:44.195Z,10.20
2018-04-14T08:57:10.401Z,11.27
2018-04-14T08:59:36.722Z,18.87
2018-04-14T09:02:02.997Z,13.20
2018-04-14T09:04:29.218Z,11.07
2018-04-14T09:06:55.453Z,10.77
2018-04-14T09:09:21.669Z,11.83
2018-04-14T09:11:47.897Z,12.73
2018-04-14T09:14:14.122Z,14.27
2018-04-14T09:16:40.334Z,14.40
2018-04-14T09:19:06.670Z,14.13
2018-04-14T09:21:33.010Z,15.63
2018-04-14T09:23:59.350Z,13.23
2018-04-14T09:26:25.932Z,13.23
2018-04-14T09:28:52.399Z,12.90
2018-04-14T09:31:18.734Z,10.67
2018-04-14T09:33:45.270Z,15.83
2018-04-14T09:36:11.594Z,10.00
2018-04-14T09:38:37.958Z,16.17
2018-04-14T09:41:04.350Z,10.43
2018-04-14T09:43:30.702Z,12.37
2018-04-14T09:45:57.053Z,15.60
2018-04-14T09:48:23.407Z,12.57
2018-04-14T09:50:49.758Z,14.40
2018-04-14T09:53:16.109Z,13.47
2018-04-14T09:55:42.446Z,13.87
2018-04-14T09:58:08.815Z,14.33
2018-04-14T10:00:41.335Z,13.67
2018-04-14T10:03:13.678Z,13.23
2018-04-14T10:05:40.046Z,15.60
2018-04-14T10:08:06.394Z,11.80
2018-04-14T10:10:32.786Z,13.83
2018-04-14T10:12:59.110Z,15.73
2018-04-14T10:15:25.443Z,12.73
2018-04-14T10:17:51.803Z,12.37
2018-04-14T10:20:18.134Z,10.37
2018-04-14T10:22:44.685Z,12.37
2018-04-14T10:25:11.035Z,13.17
2018-04-14T10:27:37.433Z,15.83
2018-04-14T10:30:03.854Z,12.47
2018-04-14T10:32:30.208Z,12.90
2018-04-14T10:34:56.554Z,12.73
2018-04-14T10:37:22.907Z,10.87
2018-04-14T10:39:49.299Z,11.27
2018-04-14T10:42:15.770Z,11.17
2018-04-14T10:44:42.278Z,12.97
2018-04-14T10:47:08.633Z,12.73
2018-04-14T10:49:35.177Z,13.10
2018-04-14T10:52:01.517Z,11.83
2018-04-14T10:54:27.862Z,14.57
2018-04-14T10:56:54.281Z,11.53
2018-04-14T10:59:20.630Z,14.20
2018-04-14T11:01:47.157Z,11.67
2018-04-14T11:04:13.566Z,10.50
2018-04-14T11:06:39.914Z,16.33
2018-04-14T11:09:06.257Z,9.27
2018-04-14T11:11:32.601Z,16.83
2018-04-14T11:13:58.966Z,13.33
2018-04-14T11:16:25.564Z,12.67
2018-04-14T11:18:51.912Z,10.80
2018-04-14T11:21:18.310Z,11.70
2018-04-14T11:23:44.672Z,11.57
2018-04-14T11:26:11.058Z,11.23
2018-04-14T11:28:37.421Z,11.33
2018-04-14T11:31:03.773Z,12.60
2018-04-14T11:33:30.141Z,12.13
2018-04-14T11:35:56.483Z,11.77
2018-04-14T11:38:22.822Z,11.70
2018-04-14T11:40:49.181Z,13.63
2018-04-14T11:43:15.598Z,10.40
2018-04-14T11:45:41.926Z,11.87
2018-04-14T11:48:08.276Z,11.20
2018-04-14T11:50:34.681Z,13.37
2018-04-14T11:53:01.143Z,10.90
2018-04-14T11:55:27.490Z,11.13
2018-04-14T11:57:53.823Z,18.40
2018-04-14T12:00:20.190Z,10.50
2018-04-14T12:02:46.535Z,15.37
2018-04-14T12:05:12.882Z,14.63
2018-04-14T12:07:39.273Z,12.03
2018-04-14T12:10:05.650Z,10.60
2018-04-14T12:12:32.025Z,11.43
2018-04-14T12:14:58.360Z,12.53
2018-04-14T12:17:24.705Z,11.90
2018-04-14T12:19:51.233Z,14.03
2018-04-14T12:22:17.595Z,10.70
2018-04-14T12:24:44.102Z,15.10
2018-04-14T12:27:10.477Z,11.03
2018-04-14T12:29:36.825Z,15.03
2018-04-14T12:32:03.186Z,11.33
2018-04-14T12:34:29.513Z,10.53
2018-04-14T12:36:55.853Z,9.87
2018-04-14T12:39:22.242Z,11.57
2018-04-14T12:41:48.653Z,15.60
2018-04-14T12:44:14.993Z,11.77
2018-04-14T12:46:41.466Z,11.60
2018-04-14T12:49:07.826Z,14.50
2018-04-14T12:51:34.175Z,11.97
2018-04-14T12:54:00.613Z,8.97
2018-04-14T12:56:27.006Z,11.30
2018-04-14T12:58:53.358Z,11.43
2018-04-14T13:01:19.690Z,8.57
2018-04-14T13:03:46.038Z,13.00
2018-04-14T13:06:12.422Z,12.10
2018-04-14T13:08:38.773Z,10.30
2018-04-14T13:11:05.269Z,13.00
2018-04-14T13:13:31.721Z,10.70
2018-04-14T13:15:58.221Z,10.57
2018-04-14T13:18:24.643Z,11.10
2018-04-14T13:20:50.985Z,11.10
2018-04-14T13:23:17.355Z,10.10
2018-04-14T13:25:43.718Z,10.07
2018-04-14T13:28:10.113Z,12.20
2018-04-14T13:30:36.474Z,11.97
2018-04-14T13:33:02.814Z,10.77
2018-04-14T13:35:29.166Z,9.40
2018-04-14T13:37:55.510Z,10.50
2018-04-14T13:40:21.890Z,13.33
2018-04-14T13:42:48.255Z,11.27
2018-04-14T13:45:14.615Z,8.53
2018-04-14T13:47:40.960Z,10.90
2018-04-14T13:50:07.314Z,12.60
2018-04-14T13:52:33.657Z,10.57
2018-04-14T13:54:59.991Z,11.20
2018-04-14T13:57:26.470Z,14.23
2018-04-14T13:59:52.841Z,17.10
2018-04-14T14:02:19.170Z,15.53
2018-04-14T14:04:45.519Z,14.17
2018-04-14T14:07:11.862Z,12.90
2018-04-14T14:09:38.203Z,14.97
2018-04-14T14:12:04.570Z,13.07
2018-04-14T14:14:30.945Z,11.83
2018-04-14T14:16:57.281Z,12.80
2018-04-14T14:19:23.634Z,16.50
2018-04-14T14:21:49.978Z,15.67
2018-04-14T14:24:16.314Z,14.07
2018-04-14T14:26:42.655Z,9.03
2018-04-14T14:29:09.166Z,14.80
2018-04-14T14:31:35.825Z,12.47
2018-04-14T14:34:02.277Z,13.70
2018-04-14T14:36:28.668Z,16.33
2018-04-14T14:38:55.025Z,13.53
2018-04-14T14:41:21.538Z,14.40
2018-04-14T14:43:47.905Z,14.50
2018-04-14T14:46:14.335Z,11.10
2018-04-14T14:48:40.763Z,11.13
2018-04-14T14:51:07.103Z,13.07
2018-04-14T14:53:33.446Z,8.40
2018-04-14T14:55:59.808Z,9.80
2018-04-14T14:58:26.297Z,12.03
2018-04-14T15:00:52.696Z,11.63
2018-04-14T15:03:19.027Z,13.17
2018-04-14T15:05:45.373Z,14.50
2018-04-14T15:08:11.741Z,19.23
2018-04-14T15:10:38.097Z,15.33
2018-04-14T15:13:04.489Z,11.63
2018-04-14T15:15:30.887Z,9.97
2018-04-14T15:17:57.220Z,15.13
2018-04-14T15:20:23.550Z,11.90
2018-04-14T15:22:49.884Z,9.23
2018-04-14T15:25:16.393Z,10.53
2018-04-14T15:27:42.734Z,9.80
2018-04-14T15:30:09.077Z,9.43
2018-04-14T15:32:35.414Z,11.73
2018-04-14T15:35:01.774Z,11.20
2018-04-14T15:37:28.110Z,16.53
2018-04-14T15:39:54.442Z,12.17
2018-04-14T15:42:20.834Z,12.40
2018-04-14T15:44:47.160Z,15.67
2018-04-14T15:47:13.495Z,12.47
2018-04-14T15:49:39.827Z,15.07
2018-04-14T15:52:06.158Z,13.00
2018-04-14T15:54:32.518Z,12.57
2018-04-14T15:56:58.854Z,13.07
2018-04-14T15:59:25.232Z,12.07
2018-04-14T16:01:51.688Z,12.43
2018-04-14T16:04:18.035Z,11.43
2018-04-14T16:06:44.386Z,13.37
2018-04-14T16:09:10.760Z,13.57
2018-04-14T16:11:37.143Z,14.20
2018-04-14T16:14:03.650Z,13.70
2018-04-14T16:16:29.980Z,12.27
2018-04-14T16:18:56.517Z,13.83
2018-04-14T16:21:22.945Z,9.17
2018-04-14T16:23:49.281Z,14.97
2018-04-14T16:26:15.630Z,11.77
2018-04-14T16:28:41.961Z,10.83
2018-04-14T16:31:08.300Z,15.60
2018-04-14T16:33:34.670Z,12.57
2018-04-14T16:36:01.041Z,14.37
2018-04-14T16:38:27.378Z,10.73
2018-04-14T16:40:53.721Z,9.23
2018-04-14T16:43:20.052Z,11.90
2018-04-14T16:45:46.390Z,11.80
2018-04-14T16:48:12.746Z,10.57
2018-04-14T16:50:39.103Z,14.53
2018-04-14T16:53:05.463Z,12.83
2018-04-14T16:55:31.817Z,10.00
2018-04-14T16:57:58.186Z,13.70
2018-04-14T17:00:24.512Z,13.77
2018-04-14T17:02:50.888Z,12.23
2018-04-14T17:05:17.241Z,10.97
2018-04-14T17:07:43.581Z,14.73
2018-04-14T17:10:09.926Z,13.30
2018-04-14T17:12:36.258Z,11.40
2018-04-14T17:15:02.645Z,13.63
2018-04-14T17:17:29.005Z,14.80
2018-04-14T17:19:55.366Z,11.00
2018-04-14T17:22:21.715Z,12.97
2018-04-14T17:24:48.045Z,11.90
2018-04-14T17:27:14.398Z,15.40
2018-04-14T17:29:40.762Z,10.83
2018-04-14T17:32:07.102Z,11.27
2018-04-14T17:34:34.961Z,10.93
2018-04-14T17:37:02.352Z,11.13
2018-04-14T17:39:28.689Z,10.60
2018-04-14T17:41:55.074Z,11.53
2018-04-14T17:44:21.613Z,10.63
2018-04-14T17:46:48.050Z,9.87
2018-04-14T17:49:14.393Z,12.77
2018-04-14T17:51:40.730Z,11.23
2018-04-14T17:54:07.085Z,10.50
2018-04-14T17:56:33.448Z,11.10
2018-04-14T17:58:59.779Z,9.93
2018-04-14T18:01:26.158Z,12.17
2018-04-14T18:03:52.557Z,14.00
2018-04-14T18:06:18.951Z,10.00
2018-04-14T18:08:45.303Z,15.97
2018-04-14T18:11:11.882Z,10.50
2018-04-14T18:13:38.214Z,11.33
2018-04-14T18:16:04.573Z,14.70
2018-04-14T18:18:30.909Z,10.50
2018-04-14T18:20:57.246Z,9.57
2018-04-14T18:23:23.597Z,11.80
2018-04-14T18:25:49.946Z,8.90
2018-04-14T18:28:16.369Z,11.33
2018-04-14T18:30:42.718Z,12.57
2018-04-14T18:33:09.069Z,9.97
2018-04-14T18:35:35.430Z,13.70
2018-04-14T18:38:01.793Z,10.17
2018-04-14T18:40:28.179Z,20.73
2018-04-14T18:42:54.557Z,12.53
2018-04-14T18:45:20.918Z,13.40
2018-04-14T18:47:47.282Z,12.97
2018-04-14T18:50:13.717Z,18.17
2018-04-14T18:52:40.103Z,13.43
2018-04-14T18:55:06.441Z,16.10
2018-04-14T18:57:32.772Z,13.87
2018-04-14T18:59:59.347Z,12.77
2018-04-14T19:02:25.857Z,13.07
2018-04-14T19:04:52.195Z,14.17
2018-04-14T19:07:18.568Z,12.47
2018-04-14T19:09:44.914Z,13.20
2018-04-14T19:12:11.315Z,12.23
2018-04-14T19:14:37.653Z,13.73
2018-04-14T19:17:03.995Z,12.60
2018-04-14T19:19:30.433Z,17.67
2018-04-14T19:21:56.806Z,14.83
2018-04-14T19:24:23.230Z,15.37
2018-04-14T19:26:49.575Z,10.63
2018-04-14T19:29:15.930Z,13.30
2018-04-14T19:31:42.286Z,14.50
2018-04-14T19:34:08.665Z,12.87
2018-04-14T19:36:35.003Z,12.40
2018-04-14T19:39:01.419Z,13.33
2018-04-14T19:41:27.770Z,13.27
2018-04-14T19:43:54.098Z,12.23
2018-04-14T19:46:20.441Z,15.83
2018-04-14T19:48:47.424Z,14.23
2018-04-14T19:51:14.064Z,11.63
2018-04-14T19:53:40.437Z,11.23
2018-04-14T19:56:06.799Z,15.03
2018-04-14T19:58:40.255Z,12.23
2018-04-14T20:01:06.642Z,9.00
2018-04-14T20:03:32.961Z,16.20
2018-04-14T20:05:59.311Z,13.87
2018-04-14T20:08:25.650Z,13.27
2018-04-14T20:10:51.981Z,12.63
2018-04-14T20:13:18.476Z,17.10
2018-04-14T20:15:44.790Z,12.75
2018-04-14T20:18:11.112Z,10.87
2018-04-14T20:20:37.507Z,12.90
2018-04-14T20:23:03.842Z,14.33
2018-04-14T20:25:30.178Z,12.47
2018-04-14T20:27:56.509Z,13.20
2018-04-14T20:30:22.993Z,17.03
2018-04-14T20:32:49.370Z,11.00
2018-04-14T20:35:15.698Z,12.10
2018-04-14T20:37:42.969Z,13.37
2018-04-14T20:40:09.376Z,12.40
2018-04-14T20:42:35.699Z,12.07
2018-04-14T20:45:02.042Z,10.53
2018-04-14T20:47:28.374Z,15.27
2018-04-14T20:49:54.818Z,10.90
2018-04-14T20:52:21.169Z,11.03
2018-04-14T20:54:47.695Z,14.53
2018-04-14T20:57:14.046Z,11.97
2018-04-14T20:59:40.381Z,13.00
2018-04-14T21:02:06.937Z,13.23
2018-04-14T21:04:33.433Z,11.60
2018-04-14T21:06:59.837Z,16.97
2018-04-14T21:09:26.166Z,14.93
2018-04-14T21:11:52.528Z,11.80
2018-04-14T21:14:18.962Z,12.00
2018-04-14T21:16:45.281Z,12.80
2018-04-14T21:19:11.623Z,12.33
2018-04-14T21:21:37.974Z,11.83
2018-04-14T21:24:04.329Z,14.67
2018-04-14T21:26:30.818Z,11.83
2018-04-14T21:28:57.210Z,14.37
2018-04-14T21:31:23.570Z,15.17
2018-04-14T21:33:49.927Z,15.23
2018-04-14T21:36:16.266Z,13.30
2018-04-14T21:38:42.663Z,15.70
2018-04-14T21:41:09.045Z,16.53
2018-04-14T21:43:35.533Z,14.07
2018-04-14T21:46:01.885Z,15.43
2018-04-14T21:48:28.212Z,17.83
2018-04-14T21:50:54.605Z,16.27
2018-04-14T21:53:21.001Z,17.33
2018-04-14T21:55:47.347Z,17.90
2018-04-14T21:58:13.795Z,17.47
2018-04-14T22:00:40.279Z,19.50
2018-04-14T22:03:06.659Z,20.50
2018-04-14T22:05:33.064Z,18.90
2018-04-14T22:07:59.646Z,17.47
2018-04-14T22:10:26.324Z,22.77
2018-04-14T22:12:54.510Z,21.80
2018-04-14T22:15:21.955Z,22.83
2018-04-14T22:17:48.309Z,22.60
2018-04-14T22:20:14.637Z,21.73
2018-04-14T22:22:41.069Z,22.93
2018-04-14T22:25:07.461Z,30.07
2018-04-14T22:27:34.067Z,25.50
2018-04-14T22:30:00.470Z,27.53
2018-04-14T22:32:26.810Z,28.07
2018-04-14T22:34:53.178Z,29.00
2018-04-14T22:37:19.521Z,28.77
2018-04-14T22:39:45.909Z,28.63
2018-04-14T22:42:12.237Z,30.93
2018-04-14T22:44:38.589Z,33.30
2018-04-14T22:47:04.970Z,41.70
2018-04-14T22:49:31.310Z,35.53
2018-04-14T22:51:57.661Z,36.77
2018-04-14T22:54:24.067Z,34.00
2018-04-14T22:56:50.500Z,35.43
2018-04-14T22:59:16.934Z,37.03
2018-04-14T23:01:43.269Z,35.67
2018-04-14T23:04:09.638Z,35.07
2018-04-14T23:06:35.979Z,35.30
2018-04-14T23:09:02.469Z,37.27
2018-04-14T23:11:28.832Z,35.57
2018-04-14T23:13:55.173Z,37.17
2018-04-14T23:16:21.531Z,35.30
2018-04-14T23:18:47.870Z,32.20
2018-04-14T23:21:14.218Z,42.37
2018-04-14T23:23:40.558Z,39.53
2018-04-14T23:26:06.934Z,36.30
2018-04-14T23:28:33.313Z,36.80
2018-04-14T23:30:59.671Z,39.87
2018-04-14T23:33:26.026Z,37.73
2018-04-14T23:35:52.407Z,29.10
2018-04-14T23:38:18.743Z,33.93
2018-04-14T23:40:45.080Z,37.30
2018-04-14T23:43:11.414Z,38.10
2018-04-14T23:45:37.754Z,40.17
2018-04-14T23:48:04.109Z,39.63
2018-04-14T23:50:30.514Z,37.27
2018-04-14T23:52:56.857Z,33.77
2018-04-14T23:55:23.189Z,32.67
2018-04-14T23:57:49.542Z,33.77
